createdAt,value
2019-05-16T00:02:23.082Z,32.30
2019-05-16T00:04:50.188Z,32.20
2019-05-16T00:07:19.154Z,32.40
2019-05-16T00:09:48.254Z,32.20
2019-05-16T00:12:14.900Z,32.40
2019-05-16T00:14:42.006Z,32.30
2019-05-16T00:17:09.856Z,32.80
2019-05-16T00:19:38.139Z,32.30
2019-05-16T00:22:05.403Z,32.30
2019-05-16T00:24:32.490Z,32.30
2019-05-16T00:26:59.561Z,32.40
2019-05-16T00:29:27.702Z,32.40
2019-05-16T00:31:54.983Z,32.40
2019-05-16T00:34:22.108Z,32.30
2019-05-16T00:36:49.197Z,32.30
2019-05-16T00:39:18.632Z,32.30
2019-05-16T00:41:45.286Z,32.90
2019-05-16T00:44:12.348Z,32.30
2019-05-16T00:46:39.491Z,32.40
2019-05-16T00:49:08.319Z,32.30
2019-05-16T00:51:37.580Z,32.40
2019-05-16T00:54:04.225Z,32.30
2019-05-16T00:59:18.373Z,32.30
2019-05-16T01:01:49.729Z,31.70
2019-05-16T01:04:14.522Z,32.20
2019-05-16T01:06:41.582Z,32.20
2019-05-16T01:09:08.858Z,32.20
2019-05-16T01:11:38.037Z,32.20
2019-05-16T01:14:04.973Z,32.20
2019-05-16T01:16:32.068Z,32.10
2019-05-16T01:18:59.174Z,32.30
2019-05-16T01:21:28.570Z,32.20
2019-05-16T01:23:55.083Z,32.10
2019-05-16T01:26:22.178Z,32.20
2019-05-16T01:28:49.248Z,32.20
2019-05-16T01:31:25.091Z,32.20
2019-05-16T01:33:51.518Z,32.00
2019-05-16T01:36:32.999Z,32.00
2019-05-16T01:38:48.108Z,32.20
2019-05-16T01:41:15.352Z,32.10
2019-05-16T01:43:42.439Z,32.10
2019-05-16T01:46:09.551Z,32.20
2019-05-16T01:48:38.115Z,32.00
2019-05-16T01:51:07.619Z,32.00
2019-05-16T01:53:34.232Z,32.00
2019-05-16T01:56:04.659Z,32.00
2019-05-16T01:58:31.754Z,32.00
2019-05-16T02:01:11.386Z,32.00
2019-05-16T02:03:28.211Z,32.10
2019-05-16T02:05:55.428Z,32.00
2019-05-16T02:08:22.628Z,32.00
2019-05-16T02:10:49.801Z,32.00
2019-05-16T02:13:17.953Z,32.00
2019-05-16T02:15:45.618Z,32.00
2019-05-16T02:18:12.677Z,32.00
2019-05-16T02:20:39.835Z,31.90
2019-05-16T02:23:08.049Z,31.90
2019-05-16T02:25:35.291Z,31.90
2019-05-16T02:28:04.052Z,31.90
2019-05-16T02:30:31.615Z,32.00
2019-05-16T02:33:01.082Z,31.90
2019-05-16T02:35:30.968Z,31.90
2019-05-16T02:37:56.536Z,31.90
2019-05-16T02:40:23.805Z,31.80
2019-05-16T02:42:51.517Z,31.90
2019-05-16T02:45:23.898Z,31.80
2019-05-16T02:47:51.114Z,31.90
2019-05-16T02:50:16.494Z,31.80
2019-05-16T02:52:43.738Z,31.80
2019-05-16T02:55:11.578Z,31.80
2019-05-16T02:57:41.591Z,31.70
2019-05-16T03:00:11.776Z,31.70
2019-05-16T03:02:37.158Z,31.80
2019-05-16T03:05:04.228Z,31.80
2019-05-16T03:07:40.575Z,32.40
2019-05-16T03:10:01.497Z,31.80
2019-05-16T03:12:30.982Z,31.70
2019-05-16T03:14:57.800Z,31.80
2019-05-16T03:17:24.874Z,31.70
2019-05-16T03:19:51.977Z,31.70
2019-05-16T03:22:21.903Z,31.60
2019-05-16T03:24:47.840Z,31.80
2019-05-16T03:27:14.905Z,31.50
2019-05-16T03:29:42.040Z,31.50
2019-05-16T03:32:13.843Z,31.60
2019-05-16T03:34:43.314Z,31.50
2019-05-16T03:37:07.106Z,31.50
2019-05-16T03:39:34.275Z,31.60
2019-05-16T03:42:01.371Z,31.50
2019-05-16T03:44:31.490Z,31.10
2019-05-16T03:47:00.752Z,31.50
2019-05-16T03:49:26.008Z,31.20
2019-05-16T03:51:53.155Z,31.40
2019-05-16T03:54:21.138Z,31.50
2019-05-16T03:56:51.195Z,31.60
2019-05-16T03:59:17.486Z,31.60
2019-05-16T04:01:44.640Z,31.70
2019-05-16T04:04:12.240Z,31.70
2019-05-16T04:06:41.662Z,32.00
2019-05-16T04:09:11.833Z,31.90
2019-05-16T04:11:37.347Z,31.90
2019-05-16T04:14:04.483Z,31.90
2019-05-16T04:16:31.635Z,31.80
2019-05-16T04:19:01.658Z,31.80
2019-05-16T04:21:27.585Z,31.80
2019-05-16T04:23:54.681Z,31.70
2019-05-16T04:26:22.082Z,31.60
2019-05-16T04:28:51.408Z,31.60
2019-05-16T04:31:21.710Z,31.70
2019-05-16T04:33:46.906Z,31.60
2019-05-16T04:36:13.972Z,31.50
2019-05-16T04:38:46.238Z,31.50
2019-05-16T04:41:11.594Z,31.50
2019-05-16T04:43:41.341Z,31.50
2019-05-16T04:46:07.433Z,31.50
2019-05-16T04:48:34.518Z,31.60
2019-05-16T04:51:01.861Z,31.70
2019-05-16T04:53:31.688Z,31.80
2019-05-16T04:55:57.685Z,31.70
2019-05-16T04:58:24.867Z,31.70
2019-05-16T05:00:52.501Z,31.80
2019-05-16T05:03:20.932Z,31.90
2019-05-16T05:05:51.356Z,31.80
2019-05-16T05:08:17.234Z,31.80
2019-05-16T05:10:44.294Z,31.80
2019-05-16T05:13:11.548Z,31.90
2019-05-16T05:15:40.100Z,31.80
2019-05-16T05:18:10.003Z,31.80
2019-05-16T05:20:36.291Z,31.80
2019-05-16T05:23:03.422Z,31.80
2019-05-16T05:25:30.834Z,31.70
2019-05-16T05:28:00.427Z,31.70
2019-05-16T05:30:27.023Z,31.50
2019-05-16T05:32:54.122Z,31.90
2019-05-16T05:35:21.193Z,32.10
2019-05-16T05:37:50.578Z,32.00
2019-05-16T05:40:17.263Z,32.30
2019-05-16T05:42:44.317Z,32.20
2019-05-16T05:45:11.413Z,32.00
2019-05-16T05:47:40.230Z,31.90
2019-05-16T05:50:07.250Z,31.80
2019-05-16T05:52:34.563Z,31.80
2019-05-16T05:55:03.151Z,31.80
2019-05-16T05:57:30.290Z,31.70
2019-05-16T05:59:57.615Z,31.70
2019-05-16T06:02:24.761Z,31.70
2019-05-16T06:04:51.835Z,31.70
2019-05-16T06:07:20.548Z,31.70
2019-05-16T06:09:53.484Z,31.80
2019-05-16T06:12:16.869Z,31.70
2019-05-16T06:14:44.002Z,31.80
2019-05-16T06:17:11.578Z,31.90
2019-05-16T06:19:40.199Z,31.70
2019-05-16T06:22:10.045Z,31.80
2019-05-16T06:24:36.291Z,31.80
2019-05-16T06:27:03.364Z,31.80
2019-05-16T06:29:31.120Z,31.80
2019-05-16T06:32:00.222Z,31.70
2019-05-16T06:34:27.138Z,31.80
2019-05-16T06:36:54.228Z,31.70
2019-05-16T06:39:21.294Z,31.70
2019-05-16T06:41:50.966Z,31.80
2019-05-16T06:44:17.212Z,31.80
2019-05-16T06:47:06.177Z,31.80
2019-05-16T06:49:13.113Z,31.80
2019-05-16T06:51:40.169Z,31.80
2019-05-16T06:54:07.338Z,31.90
2019-05-16T06:56:34.392Z,31.90
2019-05-16T06:59:03.221Z,31.90
2019-05-16T07:01:30.292Z,31.90
2019-05-16T07:03:57.376Z,31.90
2019-05-16T07:06:47.645Z,31.90
2019-05-16T07:08:53.214Z,31.90
2019-05-16T07:11:20.342Z,31.90
2019-05-16T07:13:51.751Z,32.00
2019-05-16T07:16:16.262Z,32.00
2019-05-16T07:18:43.325Z,32.00
2019-05-16T07:21:11.047Z,32.00
2019-05-16T07:23:40.388Z,32.00
2019-05-16T07:26:06.995Z,32.00
2019-05-16T07:28:34.163Z,32.00
2019-05-16T07:31:14.471Z,32.00
2019-05-16T07:33:31.239Z,32.00
2019-05-16T07:36:00.365Z,32.00
2019-05-16T07:38:27.355Z,32.00
2019-05-16T07:40:54.445Z,32.00
2019-05-16T07:43:21.804Z,32.00
2019-05-16T07:45:51.392Z,32.00
2019-05-16T07:48:20.857Z,32.00
2019-05-16T07:50:46.623Z,32.00
2019-05-16T07:53:13.694Z,32.10
2019-05-16T07:55:40.755Z,32.10
2019-05-16T07:58:10.297Z,32.70
2019-05-16T08:00:49.770Z,32.50
2019-05-16T08:03:05.627Z,32.40
2019-05-16T08:05:33.537Z,32.40
2019-05-16T08:08:00.818Z,32.20
2019-05-16T08:10:38.054Z,32.20
2019-05-16T08:12:56.830Z,32.20
2019-05-16T08:15:23.910Z,32.20
2019-05-16T08:20:21.318Z,32.30
2019-05-16T08:22:50.753Z,32.30
2019-05-16T08:25:20.190Z,32.20
2019-05-16T08:27:46.293Z,32.30
2019-05-16T08:30:13.540Z,32.30
2019-05-16T08:32:42.671Z,32.30
2019-05-16T08:35:11.252Z,32.30
2019-05-16T08:37:46.067Z,32.30
2019-05-16T08:40:07.448Z,32.20
2019-05-16T08:42:34.527Z,32.40
2019-05-16T08:45:02.161Z,32.40
2019-05-16T08:47:32.171Z,32.40
2019-05-16T08:50:00.672Z,32.40
2019-05-16T08:52:27.197Z,32.50
2019-05-16T08:54:54.260Z,32.50
2019-05-16T08:57:27.534Z,32.40
2019-05-16T08:59:52.301Z,32.60
2019-05-16T09:02:22.223Z,32.60
2019-05-16T09:04:53.095Z,32.50
2019-05-16T09:07:16.650Z,32.50
2019-05-16T09:09:49.509Z,32.60
2019-05-16T09:10:35.524Z,32.20
2019-05-16T09:12:12.605Z,33.20
2019-05-16T09:14:39.700Z,33.20
2019-05-16T09:17:07.546Z,32.90
2019-05-16T09:19:36.854Z,32.80
2019-05-16T09:22:03.579Z,32.90
2019-05-16T09:24:30.681Z,33.00
2019-05-16T09:26:58.031Z,32.80
2019-05-16T09:29:27.337Z,33.20
2019-05-16T09:32:07.858Z,33.30
2019-05-16T09:34:22.992Z,33.10
2019-05-16T09:36:50.082Z,33.00
2019-05-16T09:39:17.164Z,33.00
2019-05-16T09:41:50.966Z,33.10
2019-05-16T09:44:13.563Z,32.90
2019-05-16T09:46:40.611Z,32.90
2019-05-16T09:49:16.895Z,33.00
2019-05-16T09:51:37.591Z,32.90
2019-05-16T09:54:07.168Z,33.10
2019-05-16T09:56:33.859Z,33.00
2019-05-16T09:59:00.930Z,33.00
2019-05-16T10:01:29.054Z,32.90
2019-05-16T10:03:56.337Z,32.90
2019-05-16T10:06:23.405Z,32.90
2019-05-16T10:08:50.500Z,33.00
2019-05-16T10:11:18.264Z,32.90
2019-05-16T10:13:47.130Z,32.90
2019-05-16T10:16:16.563Z,32.90
2019-05-16T10:18:43.355Z,33.00
2019-05-16T10:21:10.428Z,32.90
2019-05-16T10:23:37.650Z,33.00
2019-05-16T10:26:04.758Z,33.00
2019-05-16T10:28:31.872Z,32.80
2019-05-16T10:30:58.982Z,33.00
2019-05-16T10:33:27.610Z,33.00
2019-05-16T10:35:57.761Z,33.00
2019-05-16T10:38:23.703Z,33.00
2019-05-16T10:40:50.825Z,32.90
2019-05-16T10:43:18.129Z,32.90
2019-05-16T10:45:46.424Z,32.90
2019-05-16T10:48:13.848Z,32.90
2019-05-16T10:50:41.152Z,33.10
2019-05-16T10:53:25.817Z,33.10
2019-05-16T10:55:37.042Z,32.90
2019-05-16T10:58:04.298Z,33.20
2019-05-16T11:00:58.028Z,33.40
2019-05-16T11:03:00.296Z,33.30
2019-05-16T11:05:33.623Z,33.00
2019-05-16T11:07:57.302Z,33.30
2019-05-16T11:10:26.878Z,33.30
2019-05-16T11:12:55.501Z,33.30
2019-05-16T11:15:22.559Z,33.20
2019-05-16T11:17:49.761Z,33.50
2019-05-16T11:20:19.824Z,33.40
2019-05-16T11:22:47.766Z,33.50
2019-05-16T11:25:24.615Z,33.50
2019-05-16T11:27:43.217Z,33.50
2019-05-16T11:30:10.534Z,33.40
2019-05-16T11:32:37.793Z,33.60
2019-05-16T11:35:07.222Z,33.40
2019-05-16T11:37:33.892Z,33.40
2019-05-16T11:40:00.978Z,33.50
2019-05-16T11:42:28.139Z,33.50
2019-05-16T11:44:57.948Z,33.40
2019-05-16T11:47:23.999Z,33.40
2019-05-16T11:49:51.110Z,33.60
2019-05-16T11:52:18.230Z,33.60
2019-05-16T11:54:46.876Z,33.60
2019-05-16T11:57:14.332Z,33.70
2019-05-16T11:59:41.391Z,33.80
2019-05-16T12:02:09.108Z,33.80
2019-05-16T12:04:37.520Z,33.80
2019-05-16T12:07:07.452Z,33.90
2019-05-16T12:09:37.353Z,34.00
2019-05-16T12:12:04.033Z,34.10
2019-05-16T12:14:31.413Z,33.80
2019-05-16T12:16:58.482Z,34.00
2019-05-16T12:19:33.514Z,34.30
2019-05-16T12:21:56.965Z,34.20
2019-05-16T12:24:36.103Z,34.30
2019-05-16T12:26:52.153Z,34.70
2019-05-16T12:29:19.254Z,34.30
2019-05-16T12:31:57.230Z,34.30
2019-05-16T12:34:15.132Z,34.20
2019-05-16T12:36:42.274Z,34.40
2019-05-16T12:39:09.392Z,34.40
2019-05-16T12:41:41.060Z,34.40
2019-05-16T12:44:07.628Z,34.50
2019-05-16T12:46:36.442Z,34.50
2019-05-16T12:49:02.988Z,34.50
2019-05-16T12:51:30.049Z,34.60
2019-05-16T12:54:01.061Z,34.50
2019-05-16T12:56:28.255Z,34.60
2019-05-16T12:58:55.388Z,34.60
2019-05-16T13:01:30.666Z,34.50
2019-05-16T13:03:51.467Z,34.70
2019-05-16T13:06:18.555Z,34.60
2019-05-16T13:08:46.900Z,34.70
2019-05-16T13:11:14.023Z,34.70
2019-05-16T13:13:41.293Z,34.50
2019-05-16T13:16:08.370Z,34.70
2019-05-16T13:18:36.975Z,34.60
2019-05-16T13:21:06.655Z,34.80
2019-05-16T13:23:33.367Z,35.00
2019-05-16T13:26:00.523Z,34.90
2019-05-16T13:28:27.662Z,35.00
2019-05-16T13:30:54.714Z,35.00
2019-05-16T13:33:21.956Z,35.30
2019-05-16T13:35:49.026Z,35.30
2019-05-16T13:38:17.263Z,35.10
2019-05-16T13:40:44.860Z,35.10
2019-05-16T13:43:12.005Z,35.30
2019-05-16T13:45:39.177Z,35.30
2019-05-16T13:48:08.065Z,35.30
2019-05-16T13:50:37.316Z,35.30
2019-05-16T13:53:03.961Z,35.00
2019-05-16T13:55:31.078Z,35.30
2019-05-16T13:57:58.169Z,35.30
2019-05-16T14:00:27.760Z,35.30
2019-05-16T14:02:54.001Z,35.40
2019-05-16T14:05:21.088Z,35.50
2019-05-16T14:07:48.301Z,35.20
2019-05-16T14:10:18.180Z,35.20
2019-05-16T14:12:44.469Z,35.40
2019-05-16T14:15:11.532Z,35.40
2019-05-16T14:17:38.661Z,34.60
2019-05-16T14:20:13.915Z,35.00
2019-05-16T14:22:34.779Z,34.80
2019-05-16T14:25:01.839Z,35.20
2019-05-16T14:27:29.106Z,35.50
2019-05-16T14:29:57.792Z,35.40
2019-05-16T14:32:26.096Z,35.40
2019-05-16T14:34:53.159Z,35.50
2019-05-16T14:37:20.530Z,35.50
2019-05-16T14:39:48.784Z,35.10
2019-05-16T14:42:17.773Z,35.50
2019-05-16T14:45:03.624Z,35.30
2019-05-16T14:47:17.566Z,35.00
2019-05-16T14:49:43.238Z,35.40
2019-05-16T14:52:10.377Z,35.50
2019-05-16T14:54:37.858Z,35.40
2019-05-16T14:57:05.108Z,35.60
2019-05-16T14:59:32.235Z,35.40
2019-05-16T15:01:59.302Z,35.20
2019-05-16T15:04:30.046Z,35.70
2019-05-16T15:06:57.212Z,35.60
2019-05-16T15:09:24.139Z,35.70
2019-05-16T15:11:51.199Z,35.50
2019-05-16T15:14:18.363Z,35.90
2019-05-16T15:16:47.936Z,35.50
2019-05-16T15:19:14.253Z,34.80
2019-05-16T15:21:41.327Z,34.80
2019-05-16T15:24:08.603Z,34.80
2019-05-16T15:26:37.616Z,34.80
2019-05-16T15:29:07.903Z,35.00
2019-05-16T15:31:33.443Z,35.00
2019-05-16T15:34:00.508Z,35.00
2019-05-16T15:36:27.600Z,34.90
2019-05-16T15:38:56.714Z,34.80
2019-05-16T15:41:23.465Z,34.90
2019-05-16T15:43:50.557Z,35.10
2019-05-16T15:46:17.775Z,34.90
2019-05-16T15:48:48.576Z,34.90
2019-05-16T15:51:13.673Z,34.90
2019-05-16T15:53:40.766Z,34.90
2019-05-16T15:56:10.485Z,35.00
2019-05-16T15:58:37.356Z,34.80
2019-05-16T16:01:07.116Z,34.80
2019-05-16T16:03:33.669Z,34.80
2019-05-16T16:06:00.739Z,34.70
2019-05-16T16:08:28.348Z,34.70
2019-05-16T16:10:55.625Z,34.80
2019-05-16T16:13:22.887Z,34.80
2019-05-16T16:15:54.212Z,34.80
2019-05-16T16:18:21.761Z,35.40
2019-05-16T16:20:47.934Z,34.80
2019-05-16T16:23:17.773Z,34.80
2019-05-16T16:25:49.685Z,34.80
2019-05-16T16:28:12.871Z,35.00
2019-05-16T16:30:39.987Z,35.20
2019-05-16T16:33:21.242Z,34.80
2019-05-16T16:35:37.830Z,34.80
2019-05-16T16:38:06.865Z,34.90
2019-05-16T16:40:33.512Z,35.00
2019-05-16T16:43:00.600Z,35.10
2019-05-16T16:45:27.810Z,35.00
2019-05-16T16:47:57.157Z,35.00
2019-05-16T16:50:23.748Z,35.50
2019-05-16T16:52:50.834Z,34.90
2019-05-16T16:55:18.007Z,34.80
2019-05-16T16:57:47.204Z,35.00
2019-05-16T17:00:13.943Z,34.90
2019-05-16T17:02:41.032Z,35.10
2019-05-16T17:05:12.020Z,35.00
2019-05-16T17:07:37.467Z,35.80
2019-05-16T17:10:06.841Z,35.10
2019-05-16T17:12:33.723Z,35.10
2019-05-16T17:15:00.809Z,35.00
2019-05-16T17:17:27.888Z,35.10
2019-05-16T17:19:56.735Z,35.80
2019-05-16T17:22:23.879Z,35.10
2019-05-16T17:24:51.171Z,35.00
2019-05-16T17:27:18.278Z,35.00
2019-05-16T17:29:47.445Z,35.00
2019-05-16T17:32:16.538Z,35.00
2019-05-16T17:34:43.107Z,35.00
2019-05-16T17:37:10.207Z,35.00
2019-05-16T17:39:37.541Z,35.00
2019-05-16T17:42:04.851Z,35.00
2019-05-16T17:44:31.933Z,34.90
2019-05-16T17:46:58.991Z,35.00
2019-05-16T17:49:26.702Z,34.90
2019-05-16T17:51:54.048Z,35.00
2019-05-16T17:54:21.380Z,35.00
2019-05-16T17:56:48.456Z,34.90
2019-05-16T17:59:17.006Z,34.80
2019-05-16T18:01:46.330Z,34.80
2019-05-16T18:04:13.407Z,34.80
2019-05-16T18:06:41.843Z,34.90
2019-05-16T18:09:09.761Z,35.10
2019-05-16T18:11:37.434Z,35.00
2019-05-16T18:14:06.219Z,35.10
2019-05-16T18:16:33.536Z,35.00
2019-05-16T18:19:00.766Z,34.70
2019-05-16T18:21:28.078Z,35.00
2019-05-16T18:23:55.916Z,34.70
2019-05-16T18:26:23.157Z,34.80
2019-05-16T18:28:50.718Z,34.80
2019-05-16T18:31:17.892Z,34.80
2019-05-16T18:33:44.964Z,34.80
2019-05-16T18:36:12.055Z,34.70
2019-05-16T18:38:39.145Z,34.80
2019-05-16T18:41:07.856Z,34.90
2019-05-16T18:43:36.448Z,35.00
2019-05-16T18:46:03.808Z,34.80
2019-05-16T18:48:30.897Z,34.80
2019-05-16T18:50:58.488Z,34.80
2019-05-16T18:53:26.963Z,34.70
2019-05-16T18:55:54.292Z,34.70
2019-05-16T18:58:21.408Z,34.90
2019-05-16T19:00:48.478Z,34.70
2019-05-16T19:03:16.460Z,34.80
2019-05-16T19:05:46.196Z,34.70
2019-05-16T19:08:13.438Z,34.70
2019-05-16T19:10:40.561Z,34.80
2019-05-16T19:13:08.387Z,34.70
2019-05-16T19:15:53.861Z,34.80
2019-05-16T19:18:20.967Z,34.80
2019-05-16T19:20:48.902Z,34.80
2019-05-16T19:23:17.510Z,34.80
2019-05-16T19:25:47.266Z,35.00
2019-05-16T19:28:13.676Z,35.30
2019-05-16T19:30:40.736Z,35.10
2019-05-16T19:33:07.882Z,35.30
2019-05-16T19:35:34.977Z,35.00
2019-05-16T19:38:02.076Z,34.80
2019-05-16T19:40:29.168Z,35.10
2019-05-16T19:42:56.629Z,35.10
2019-05-16T19:45:26.298Z,35.10
2019-05-16T19:47:52.727Z,35.20
2019-05-16T19:50:19.799Z,35.40
2019-05-16T19:52:47.312Z,35.30
2019-05-16T19:55:14.568Z,35.50
2019-05-16T19:57:41.641Z,35.30
2019-05-16T20:00:08.882Z,35.50
2019-05-16T20:02:36.815Z,35.80
2019-05-16T20:05:04.180Z,35.80
2019-05-16T20:07:31.310Z,36.40
2019-05-16T20:09:58.372Z,36.20
2019-05-16T20:12:26.269Z,36.70
2019-05-16T20:15:05.231Z,36.30
2019-05-16T20:17:23.077Z,36.70
2019-05-16T20:19:50.355Z,36.60
2019-05-16T20:22:17.465Z,36.80
2019-05-16T20:24:46.742Z,36.70
2019-05-16T20:27:13.384Z,37.10
2019-05-16T20:29:40.679Z,36.70
2019-05-16T20:32:08.887Z,36.80
2019-05-16T20:34:37.118Z,36.70
2019-05-16T20:37:06.111Z,36.70
2019-05-16T20:39:33.217Z,36.50
2019-05-16T20:42:00.385Z,36.60
2019-05-16T20:44:27.563Z,36.50
2019-05-16T20:46:56.573Z,36.60
2019-05-16T20:49:23.561Z,36.20
2019-05-16T20:51:50.823Z,36.30
2019-05-16T20:54:17.918Z,36.20
2019-05-16T20:56:46.464Z,35.90
2019-05-16T20:59:13.823Z,35.90
2019-05-16T21:01:41.072Z,36.20
2019-05-16T21:04:08.117Z,35.90
2019-05-16T21:06:35.211Z,35.90
2019-05-16T21:09:02.276Z,35.80
2019-05-16T21:11:29.590Z,35.90
2019-05-16T21:13:56.728Z,35.80
2019-05-16T21:16:23.929Z,35.80
2019-05-16T21:18:50.999Z,36.50
2019-05-16T21:21:19.293Z,35.80
2019-05-16T21:23:47.079Z,35.80
2019-05-16T21:26:14.391Z,35.80
2019-05-16T21:28:41.542Z,35.70
2019-05-16T21:31:08.700Z,35.80
2019-05-16T21:33:36.560Z,35.80
2019-05-16T21:36:03.806Z,35.80
2019-05-16T21:38:30.903Z,35.80
2019-05-16T21:40:58.499Z,35.80
2019-05-16T21:43:27.123Z,36.00
2019-05-16T21:45:56.540Z,35.80
2019-05-16T21:48:23.215Z,35.90
2019-05-16T21:50:50.364Z,35.80
2019-05-16T21:53:17.844Z,35.80
2019-05-16T21:55:47.069Z,35.80
2019-05-16T21:58:13.816Z,35.90
2019-05-16T22:00:41.052Z,35.80
2019-05-16T22:03:08.159Z,35.90
2019-05-16T22:05:37.078Z,35.90
2019-05-16T22:08:04.466Z,35.90
2019-05-16T22:10:31.747Z,35.90
2019-05-16T22:12:58.865Z,35.90
2019-05-16T22:15:26.032Z,35.90
2019-05-16T22:17:53.170Z,35.90
2019-05-16T22:20:20.337Z,36.00
2019-05-16T22:22:47.500Z,35.90
2019-05-16T22:25:16.605Z,36.00
2019-05-16T22:27:43.446Z,36.00
2019-05-16T22:30:10.740Z,36.10
2019-05-16T22:32:37.845Z,35.90
2019-05-16T22:35:07.600Z,36.00
2019-05-16T22:37:46.078Z,36.00
2019-05-16T22:40:02.485Z,36.00
2019-05-16T22:42:29.679Z,36.10
2019-05-16T22:44:56.776Z,36.10
2019-05-16T22:47:26.206Z,36.20
2019-05-16T22:49:52.628Z,35.90
2019-05-16T22:52:19.697Z,35.90
2019-05-16T22:54:47.581Z,35.90
2019-05-16T22:57:17.411Z,35.90
2019-05-16T22:59:43.719Z,35.90
2019-05-16T23:02:12.169Z,35.80
2019-05-16T23:04:39.871Z,35.70
2019-05-16T23:07:07.123Z,35.60
2019-05-16T23:09:36.446Z,35.60
2019-05-16T23:12:03.076Z,35.60
2019-05-16T23:14:30.184Z,35.60
2019-05-16T23:16:57.248Z,35.60
2019-05-16T23:19:26.389Z,35.60
2019-05-16T23:21:53.283Z,35.50
2019-05-16T23:24:20.372Z,35.50
2019-05-16T23:26:47.455Z,35.50
2019-05-16T23:29:16.726Z,35.60
2019-05-16T23:31:43.524Z,35.50
2019-05-16T23:34:10.614Z,35.50
2019-05-16T23:36:37.721Z,35.40
2019-05-16T23:39:06.231Z,35.70
2019-05-16T23:41:33.466Z,35.40
2019-05-16T23:44:00.601Z,35.40
2019-05-16T23:46:27.726Z,35.40
2019-05-16T23:48:56.627Z,35.40
2019-05-16T23:51:23.586Z,35.40
2019-05-16T23:53:50.836Z,35.40
2019-05-16T23:56:17.892Z,35.30
2019-05-16T23:58:47.540Z,35.40
